Portada
METAR-TAF:

METAR-TAF

Aeroports :

Büchel, Alemanya

latitud: 50-10N, longitud: 007-04E, altitud: 478 m

Observació

L'informe es va fer fa 35 minuts, a les 21:20 UTC
Vent 5 kt del Nord
Temperatura 12°C
Humitat 71%
Pressió 1034 hPa
Visibilitat 10 km o més

METAR: ETSB 252120Z AUTO 01005KT 9999 // ////// 12/07 Q1034 ///

Hora: 23:55 (21:55 UTC)

Pronòstic

L'informe es va fer fa 11 hores i 35 minuts, a les 10:20 UTC
Pronòstic vàlid del 25 a les 11 UTC al 25 a les 20 UTC
Vent 10 kt del Nord
Visibilitat 10 km o més
Escasses núvols a una alçada de 2500 ft
Cel ennuvolat a una alçada de 6000 ft

TAF: ETSB 251020Z 2511/2520 35010KT 9999 NSW FEW025 BKN060 BY ETGL

Observacions i pronòstics meteorològics de més de 4000 aeroports (METAR i TAF).

Les estacions disponibles són els punts grocs i vermells al mapa.

Posi el ratolí al punt desitjat per veure el nom de l'estació.

Feu clic per veure les observacions i els pronòstics meteorològics.

Per canviar el mapa: feu clic els botons verds amb una creu de color negre per apropar; al botó verd amb un guió per allunyar la imatge; o en les fletxes verdes per a mapes adjacents.


METAR-TAF: